createdAt,value
2019-06-25T03:47:19.119Z,7.57
2019-06-25T03:50:06.898Z,6.57
2019-06-25T03:52:49.276Z,7.70
2019-06-25T03:55:19.390Z,7.63
2019-06-25T03:57:51.943Z,7.60
2019-06-25T04:00:27.752Z,7.30
2019-06-25T04:03:04.145Z,7.20
2019-06-25T04:05:33.126Z,7.87
2019-06-25T04:08:02.114Z,7.53
2019-06-25T04:10:31.186Z,7.53
2019-06-25T04:13:00.168Z,8.80
2019-06-25T04:15:29.170Z,6.90
2019-06-25T04:17:58.139Z,6.97
2019-06-25T04:20:27.151Z,6.87
2019-06-25T04:22:57.028Z,6.30
2019-06-25T04:25:27.174Z,7.53
2019-06-25T04:27:56.388Z,7.07
2019-06-25T04:30:25.541Z,7.00
2019-06-25T04:32:54.564Z,7.10
2019-06-25T04:35:23.547Z,6.77
2019-06-25T04:37:52.468Z,7.53
2019-06-25T04:40:25.200Z,7.17
2019-06-25T04:42:54.267Z,8.07
2019-06-25T04:45:23.340Z,8.07
2019-06-25T04:47:52.463Z,7.80
2019-06-25T04:50:21.464Z,8.03
2019-06-25T04:52:50.554Z,7.00
2019-06-25T04:55:20.196Z,7.23
2019-06-25T04:57:49.395Z,7.17
2019-06-25T05:00:20.073Z,7.13
2019-06-25T05:02:50.507Z,7.90
2019-06-25T05:05:19.782Z,6.73
2019-06-25T05:07:48.754Z,7.50
2019-06-25T05:10:18.183Z,6.70
2019-06-25T05:12:47.451Z,6.10
2019-06-25T05:15:18.258Z,6.90
2019-06-25T05:17:47.345Z,7.20
2019-06-25T05:20:17.224Z,6.40
2019-06-25T05:22:46.395Z,7.33
2019-06-25T05:25:15.644Z,7.30
2019-06-25T05:27:44.717Z,8.10
2019-06-25T05:30:14.124Z,8.30
2019-06-25T05:32:43.208Z,8.10
2019-06-25T05:35:12.595Z,7.90
2019-06-25T05:37:41.963Z,7.63
2019-06-25T05:40:12.813Z,7.90
2019-06-25T05:42:41.897Z,7.67
2019-06-25T05:45:13.166Z,7.83
2019-06-25T05:47:42.179Z,8.40
2019-06-25T05:50:11.563Z,7.67
2019-06-25T05:52:40.625Z,8.57
2019-06-25T05:55:09.996Z,8.87
2019-06-25T05:57:39.040Z,8.60
2019-06-25T06:00:09.278Z,8.40
2019-06-25T06:02:38.313Z,7.17
2019-06-25T06:05:08.554Z,7.83
2019-06-25T06:07:37.650Z,7.50
2019-06-25T06:10:07.227Z,8.20
2019-06-25T06:12:36.522Z,8.30
2019-06-25T06:15:06.348Z,6.80
2019-06-25T06:17:48.904Z,7.40
2019-06-25T06:20:17.996Z,8.23
2019-06-25T06:22:47.133Z,7.53
2019-06-25T06:25:16.196Z,8.17
2019-06-25T06:27:45.117Z,7.20
2019-06-25T06:30:15.505Z,7.73
2019-06-25T06:32:44.612Z,7.70
2019-06-25T06:35:13.782Z,7.53
2019-06-25T06:37:42.849Z,7.13
2019-06-25T06:40:12.196Z,6.50
2019-06-25T06:42:41.380Z,6.80
2019-06-25T06:45:10.374Z,6.83
2019-06-25T06:47:39.575Z,7.60
2019-06-25T06:50:09.066Z,7.30
2019-06-25T06:52:38.135Z,7.30
2019-06-25T06:55:07.413Z,7.67
2019-06-25T06:57:36.479Z,7.33
2019-06-25T07:00:06.689Z,7.80
2019-06-25T07:02:35.833Z,6.70
2019-06-25T07:05:05.660Z,7.33
2019-06-25T07:07:35.027Z,6.80
2019-06-25T07:10:04.785Z,6.83
2019-06-25T07:12:33.885Z,5.97
2019-06-25T07:15:03.007Z,7.47
2019-06-25T07:17:32.135Z,6.40
2019-06-25T07:20:01.286Z,6.10
2019-06-25T07:22:30.424Z,7.53
2019-06-25T07:24:59.538Z,6.73
2019-06-25T07:27:29.775Z,6.67
2019-06-25T07:29:59.559Z,6.90
2019-06-25T07:32:28.700Z,6.30
2019-06-25T07:34:57.746Z,6.57
2019-06-25T07:37:26.888Z,5.67
2019-06-25T07:39:55.956Z,6.17
2019-06-25T07:42:25.075Z,6.80
2019-06-25T07:44:54.065Z,6.33
2019-06-25T07:47:23.134Z,6.77
2019-06-25T07:49:52.203Z,6.07
2019-06-25T07:52:21.923Z,6.30
2019-06-25T07:54:51.095Z,6.33
2019-06-25T07:57:20.167Z,6.83
2019-06-25T07:59:49.299Z,6.10
2019-06-25T08:02:18.533Z,5.60
2019-06-25T08:04:47.685Z,6.63
2019-06-25T08:07:16.830Z,6.73
2019-06-25T08:09:45.861Z,5.97
2019-06-25T08:12:15.121Z,6.10
2019-06-25T08:14:44.202Z,6.67
2019-06-25T08:17:13.557Z,6.80
2019-06-25T08:19:42.715Z,6.47
2019-06-25T08:22:11.798Z,6.27
2019-06-25T08:24:41.120Z,6.70
2019-06-25T08:27:10.061Z,6.73
2019-06-25T08:29:39.231Z,6.20
2019-06-25T08:32:08.295Z,6.70
2019-06-25T08:34:41.970Z,6.47
2019-06-25T08:37:08.083Z,6.17
2019-06-25T08:39:37.084Z,6.33
2019-06-25T08:42:06.255Z,5.50
2019-06-25T08:44:35.252Z,5.73
2019-06-25T08:47:04.499Z,5.60
2019-06-25T08:49:33.642Z,5.80
2019-06-25T08:52:02.792Z,5.60
2019-06-25T08:54:31.888Z,5.80
2019-06-25T08:57:00.932Z,5.80
2019-06-25T08:59:29.931Z,5.93
2019-06-25T09:01:59.015Z,6.40
2019-06-25T09:04:28.072Z,5.20
2019-06-25T09:06:57.227Z,5.60
2019-06-25T09:09:26.463Z,5.53
2019-06-25T09:11:55.484Z,5.70
2019-06-25T09:14:24.668Z,6.00
2019-06-25T09:16:53.888Z,5.03
2019-06-25T09:19:22.893Z,5.77
2019-06-25T09:21:51.967Z,5.60
2019-06-25T09:24:21.219Z,5.33
2019-06-25T09:26:50.355Z,5.60
2019-06-25T09:29:19.465Z,5.37
2019-06-25T09:31:48.598Z,4.53
2019-06-25T09:34:17.654Z,5.20
2019-06-25T09:36:46.718Z,4.90
2019-06-25T09:39:15.763Z,5.67
2019-06-25T09:41:43.332Z,5.70
2019-06-25T09:44:10.974Z,5.47
2019-06-25T09:46:40.544Z,5.17
2019-06-25T09:49:09.709Z,5.30
2019-06-25T09:51:39.075Z,5.30
2019-06-25T09:54:08.402Z,4.97
2019-06-25T09:56:37.412Z,5.63
2019-06-25T09:59:06.496Z,4.57
2019-06-25T10:01:45.297Z,4.90
2019-06-25T10:04:06.427Z,4.90
2019-06-25T10:06:35.539Z,6.10
2019-06-25T10:09:05.929Z,5.40
2019-06-25T10:11:35.042Z,5.60
2019-06-25T10:14:04.086Z,5.70
2019-06-25T10:16:33.189Z,4.63
2019-06-25T10:19:04.848Z,5.53
2019-06-25T10:21:32.847Z,5.80
2019-06-25T10:24:01.989Z,5.47
2019-06-25T10:26:31.317Z,5.57
2019-06-25T10:29:00.304Z,4.90
2019-06-25T10:31:29.400Z,5.03
2019-06-25T10:33:58.732Z,5.80
2019-06-25T10:36:27.795Z,5.43
2019-06-25T10:38:56.792Z,5.20
2019-06-25T10:41:25.716Z,5.20
2019-06-25T10:43:57.622Z,5.03
2019-06-25T10:46:30.579Z,4.40
2019-06-25T10:49:19.828Z,5.00
2019-06-25T10:51:50.998Z,5.73
2019-06-25T10:54:25.893Z,5.00
2019-06-25T10:57:19.440Z,4.67
2019-06-25T10:59:49.968Z,5.07
2019-06-25T11:02:38.575Z,5.00
2019-06-25T11:05:14.797Z,4.60
2019-06-25T11:07:49.659Z,5.13
2019-06-25T11:10:34.073Z,4.60
2019-06-25T11:13:14.265Z,5.03
2019-06-25T11:15:52.790Z,4.90
2019-06-25T11:18:44.142Z,5.03
2019-06-25T11:21:39.299Z,4.83
2019-06-25T11:24:22.150Z,5.37
2019-06-25T11:26:59.778Z,5.03
2019-06-25T11:29:47.379Z,5.03
2019-06-25T11:32:47.071Z,4.73
2019-06-25T11:35:22.479Z,4.03
2019-06-25T11:37:59.410Z,5.10
2019-06-25T11:40:38.843Z,4.63
2019-06-25T11:43:24.290Z,4.00
2019-06-25T11:46:02.630Z,4.50
2019-06-25T11:48:45.733Z,4.50
2019-06-25T11:51:20.973Z,4.30
2019-06-25T11:53:50.405Z,4.60
2019-06-25T11:56:19.562Z,4.07
2019-06-25T11:58:48.668Z,4.03
2019-06-25T12:01:18.391Z,3.73
2019-06-25T12:03:47.383Z,3.77
2019-06-25T12:06:32.546Z,3.77
2019-06-25T12:08:48.068Z,3.70
2019-06-25T12:11:17.120Z,3.67
2019-06-25T12:13:46.062Z,4.10
2019-06-25T12:16:15.123Z,4.03
2019-06-25T12:18:44.156Z,3.53
2019-06-25T12:21:13.536Z,4.20
2019-06-25T12:23:42.627Z,3.63
2019-06-25T12:26:11.799Z,4.57
2019-06-25T12:28:40.997Z,3.57
2019-06-25T12:31:25.261Z,3.53
2019-06-25T12:34:08.948Z,4.00
2019-06-25T12:37:08.683Z,4.10
2019-06-25T12:39:27.433Z,4.43
2019-06-25T12:42:09.871Z,3.67
2019-06-25T12:44:38.937Z,4.10
2019-06-25T12:47:09.982Z,3.50
2019-06-25T12:49:39.312Z,4.20
2019-06-25T12:52:08.735Z,3.60
2019-06-25T12:54:38.003Z,4.07
2019-06-25T12:57:07.430Z,4.20
2019-06-25T12:59:36.927Z,4.17
2019-06-25T13:02:08.720Z,3.95
2019-06-25T13:04:37.674Z,3.80
2019-06-25T13:07:07.016Z,3.67
2019-06-25T13:09:36.600Z,3.22
2019-06-25T13:12:06.329Z,3.87
2019-06-25T13:14:35.995Z,3.70
2019-06-25T13:17:05.579Z,4.30
2019-06-25T13:19:34.761Z,3.97
2019-06-25T13:22:04.672Z,4.20
2019-06-25T13:24:34.255Z,4.10
2019-06-25T13:27:03.580Z,3.77
2019-06-25T13:29:32.783Z,3.47
2019-06-25T13:32:02.386Z,3.30
2019-06-25T13:34:31.431Z,3.20
2019-06-25T13:37:00.955Z,3.27
2019-06-25T13:39:30.245Z,3.70
2019-06-25T13:42:04.727Z,3.10
2019-06-25T13:44:30.497Z,4.20
2019-06-25T13:47:00.012Z,3.75
2019-06-25T13:49:29.348Z,3.60
2019-06-25T13:51:58.728Z,4.00
2019-06-25T13:54:28.629Z,3.67
2019-06-25T13:56:57.835Z,3.80
2019-06-25T13:59:27.106Z,4.10
2019-06-25T14:01:56.964Z,3.85
2019-06-25T14:04:26.348Z,3.80
2019-06-25T14:06:55.729Z,3.70
2019-06-25T14:09:24.966Z,3.87
2019-06-25T14:11:54.287Z,3.40
2019-06-25T14:14:23.912Z,3.43
2019-06-25T14:16:53.279Z,3.10
2019-06-25T14:19:22.658Z,3.80
2019-06-25T14:21:52.552Z,3.52
2019-06-25T14:24:21.614Z,3.60
2019-06-25T14:26:50.528Z,4.30
2019-06-25T14:29:19.540Z,2.80
2019-06-25T14:31:48.723Z,3.67
2019-06-25T14:34:18.865Z,3.10
2019-06-25T14:36:48.628Z,3.98
2019-06-25T14:39:18.347Z,3.20
2019-06-25T14:41:47.964Z,3.02
2019-06-25T14:44:17.565Z,3.00
2019-06-25T14:46:46.848Z,2.30
2019-06-25T14:49:16.346Z,3.75
2019-06-25T14:51:45.605Z,2.87
2019-06-25T14:54:15.190Z,3.67
2019-06-25T14:56:44.251Z,2.90
2019-06-25T14:59:13.788Z,3.80
2019-06-25T15:01:42.999Z,3.30
2019-06-25T15:04:12.429Z,3.80
2019-06-25T15:06:41.710Z,3.27
2019-06-25T15:09:11.290Z,2.95
2019-06-25T15:11:40.823Z,2.80
2019-06-25T15:14:10.395Z,3.45
2019-06-25T15:16:39.315Z,3.50
2019-06-25T15:19:08.693Z,3.30
2019-06-25T15:21:38.173Z,3.15
2019-06-25T15:24:07.388Z,4.10
2019-06-25T15:26:36.809Z,3.33
2019-06-25T15:29:06.166Z,4.07
2019-06-25T15:31:35.527Z,3.27
2019-06-25T15:34:04.447Z,2.60
2019-06-25T15:36:33.500Z,3.10
2019-06-25T15:39:03.722Z,2.77
2019-06-25T15:41:33.045Z,4.07
2019-06-25T15:44:02.747Z,2.98
2019-06-25T15:46:35.091Z,3.50
2019-06-25T15:49:02.443Z,2.97
2019-06-25T15:51:31.445Z,3.43
2019-06-25T15:54:00.493Z,3.17
2019-06-25T15:56:29.513Z,3.33
2019-06-25T15:58:58.700Z,3.63
2019-06-25T16:01:27.772Z,3.40
2019-06-25T16:03:56.908Z,3.83
2019-06-25T16:06:25.892Z,3.00
2019-06-25T16:09:03.313Z,19.73
2019-06-25T16:11:25.877Z,16.40
2019-06-25T16:13:54.779Z,22.33
2019-06-25T16:16:23.703Z,7.07
2019-06-25T16:18:53.172Z,6.87
2019-06-25T16:21:22.377Z,4.87
2019-06-25T16:23:51.296Z,11.43
2019-06-25T16:26:20.369Z,5.20
2019-06-25T16:28:49.267Z,5.00
2019-06-25T16:31:18.432Z,6.43
2019-06-25T16:33:47.360Z,6.47
2019-06-25T16:36:16.285Z,5.53
2019-06-25T16:38:45.274Z,4.30
2019-06-25T16:41:17.120Z,3.47
2019-06-25T16:43:44.943Z,3.53
2019-06-25T16:46:13.914Z,3.20
2019-06-25T16:48:42.852Z,3.60
2019-06-25T16:51:11.931Z,4.60
2019-06-25T16:53:40.924Z,4.50
2019-06-25T16:56:09.931Z,3.63
2019-06-25T16:58:39.127Z,8.07
2019-06-25T17:01:08.114Z,15.10
2019-06-25T17:03:37.125Z,6.10
2019-06-25T17:06:06.297Z,8.50
2019-06-25T17:08:47.391Z,7.27
2019-06-25T17:11:06.044Z,5.90
2019-06-25T17:13:35.038Z,5.87
2019-06-25T17:16:04.151Z,3.57
2019-06-25T17:18:33.235Z,3.30
2019-06-25T17:21:02.244Z,4.00
2019-06-25T17:23:31.205Z,3.97
2019-06-25T17:26:00.258Z,3.80
2019-06-25T17:28:29.396Z,3.60
2019-06-25T17:30:58.409Z,3.47
2019-06-25T17:33:27.440Z,2.80
2019-06-25T17:35:56.472Z,3.80
2019-06-25T17:38:25.460Z,3.67
2019-06-25T17:40:54.673Z,3.30
2019-06-25T17:43:23.836Z,2.90
2019-06-25T17:45:53.025Z,3.30
2019-06-25T17:48:22.043Z,3.10
2019-06-25T17:50:51.015Z,3.10
2019-06-25T17:53:35.530Z,3.53
2019-06-25T17:55:50.794Z,3.07
2019-06-25T17:58:19.760Z,2.67
2019-06-25T18:00:49.339Z,3.53
2019-06-25T18:03:18.377Z,3.00
2019-06-25T18:05:47.643Z,2.70
2019-06-25T18:08:16.738Z,3.27
2019-06-25T18:10:45.980Z,3.67
2019-06-25T18:13:14.959Z,3.50
2019-06-25T18:15:43.986Z,3.30
2019-06-25T18:18:13.045Z,2.93
2019-06-25T18:20:42.133Z,3.47
2019-06-25T18:23:12.239Z,4.57
2019-06-25T18:25:41.679Z,3.27
2019-06-25T18:28:10.762Z,4.80
2019-06-25T18:30:39.855Z,3.70
2019-06-25T18:33:09.127Z,3.60
2019-06-25T18:35:38.166Z,3.83
2019-06-25T18:38:07.186Z,3.80
2019-06-25T18:40:36.186Z,4.73
2019-06-25T18:43:05.174Z,4.13
2019-06-25T18:45:34.285Z,4.23
2019-06-25T18:48:03.359Z,4.70
2019-06-25T18:50:32.590Z,4.80
2019-06-25T18:53:01.625Z,3.63
2019-06-25T18:55:30.876Z,4.63
2019-06-25T18:57:59.891Z,3.90
2019-06-25T19:00:28.983Z,4.47
2019-06-25T19:02:58.064Z,4.67
2019-06-25T19:05:27.299Z,4.80
2019-06-25T19:07:56.442Z,3.90
2019-06-25T19:10:39.526Z,4.30
2019-06-25T19:12:56.352Z,4.53
2019-06-25T19:15:25.585Z,4.20
2019-06-25T19:17:54.523Z,4.63
2019-06-25T19:20:23.441Z,4.00
2019-06-25T19:22:52.365Z,4.40
2019-06-25T19:25:21.420Z,4.47
2019-06-25T19:27:50.760Z,5.10
2019-06-25T19:30:22.239Z,5.30
2019-06-25T19:32:51.555Z,4.63
2019-06-25T19:35:20.862Z,4.83
2019-06-25T19:37:50.079Z,4.90
2019-06-25T19:40:19.291Z,4.27
2019-06-25T19:42:48.450Z,4.73
2019-06-25T19:45:18.105Z,4.83
2019-06-25T19:47:50.668Z,4.53
2019-06-25T19:50:18.578Z,6.13
2019-06-25T19:52:47.574Z,4.97
2019-06-25T19:55:18.020Z,5.63
2019-06-25T19:57:47.317Z,5.63
2019-06-25T20:00:16.568Z,5.80
2019-06-25T20:02:45.559Z,5.07
2019-06-25T20:05:15.193Z,4.97
2019-06-25T20:07:44.711Z,5.57
2019-06-25T20:10:14.354Z,5.50
2019-06-25T20:12:43.427Z,5.93
2019-06-25T20:15:12.775Z,5.30
2019-06-25T20:17:41.812Z,5.80
2019-06-25T20:20:11.182Z,5.20
2019-06-25T20:22:40.187Z,5.40
2019-06-25T20:25:09.163Z,5.50
2019-06-25T20:27:38.500Z,4.93
2019-06-25T20:30:08.438Z,5.47
2019-06-25T20:32:37.551Z,5.70
2019-06-25T20:35:06.836Z,5.70
2019-06-25T20:37:35.950Z,5.47
2019-06-25T20:40:06.368Z,5.40
2019-06-25T20:42:35.457Z,5.07
2019-06-25T20:45:04.664Z,5.00
2019-06-25T20:47:33.589Z,5.50
2019-06-25T20:50:02.620Z,6.27
2019-06-25T20:52:32.049Z,4.73
2019-06-25T20:55:01.094Z,6.07
2019-06-25T20:57:30.208Z,5.30
2019-06-25T20:59:59.271Z,5.87
2019-06-25T21:02:28.438Z,5.80
2019-06-25T21:04:57.473Z,5.83
2019-06-25T21:07:26.640Z,5.97
2019-06-25T21:09:55.649Z,5.53
2019-06-25T21:12:24.671Z,5.67
2019-06-25T21:14:53.751Z,5.00
2019-06-25T21:17:22.761Z,6.00
2019-06-25T21:19:51.778Z,5.13
2019-06-25T21:22:20.852Z,5.20
2019-06-25T21:24:49.791Z,5.50
2019-06-25T21:27:18.880Z,5.43
2019-06-25T21:29:47.886Z,5.30
2019-06-25T21:32:16.808Z,6.47
2019-06-25T21:34:45.749Z,5.37
2019-06-25T21:37:14.655Z,5.90
2019-06-25T21:39:43.719Z,6.23
2019-06-25T21:42:12.751Z,6.03
2019-06-25T21:44:41.688Z,6.23
2019-06-25T21:47:10.690Z,6.13
2019-06-25T21:49:41.367Z,6.27
2019-06-25T21:52:10.644Z,5.73
2019-06-25T21:54:39.730Z,6.73
2019-06-25T21:57:08.795Z,5.70
2019-06-25T21:59:37.795Z,7.30
2019-06-25T22:02:08.900Z,5.63
2019-06-25T22:04:38.148Z,6.90
2019-06-25T22:07:07.278Z,7.00
2019-06-25T22:09:36.238Z,7.60
2019-06-25T22:12:20.404Z,8.40
2019-06-25T22:14:36.108Z,8.30
2019-06-25T22:17:05.307Z,8.60
2019-06-25T22:19:34.307Z,9.60
2019-06-25T22:22:15.815Z,11.33
2019-06-25T22:24:34.150Z,10.03
2019-06-25T22:27:03.157Z,11.50
2019-06-25T22:29:32.294Z,10.10
